createdAt,value
2018-09-03T00:01:32.789Z,3.03
2018-09-03T00:03:37.221Z,3.07
2018-09-03T00:05:41.621Z,3.30
2018-09-03T00:07:46.262Z,4.23
2018-09-03T00:09:50.700Z,5.43
2018-09-03T00:11:55.162Z,3.60
2018-09-03T00:13:59.599Z,4.53
2018-09-03T00:16:04.031Z,3.60
2018-09-03T00:18:08.494Z,2.50
2018-09-03T00:20:12.926Z,4.73
2018-09-03T00:22:17.395Z,5.23
2018-09-03T00:24:21.811Z,2.97
2018-09-03T00:26:26.264Z,2.70
2018-09-03T00:28:30.760Z,4.17
2018-09-03T00:30:35.226Z,3.13
2018-09-03T00:32:44.880Z,3.03
2018-09-03T00:34:54.575Z,2.03
2018-09-03T00:37:04.087Z,4.27
2018-09-03T00:39:14.201Z,2.13
2018-09-03T00:41:23.902Z,3.93
2018-09-03T00:43:33.618Z,4.37
2018-09-03T00:45:43.111Z,4.27
2018-09-03T00:47:47.575Z,3.03
2018-09-03T00:49:52.010Z,3.00
2018-09-03T00:51:56.439Z,3.53
2018-09-03T00:54:00.901Z,4.93
2018-09-03T00:56:05.338Z,3.33
2018-09-03T00:58:09.873Z,3.07
2018-09-03T01:00:16.650Z,4.73
2018-09-03T01:02:22.963Z,3.13
2018-09-03T01:04:31.255Z,3.47
2018-09-03T01:06:37.478Z,2.87
2018-09-03T01:08:46.386Z,2.57
2018-09-03T01:10:53.793Z,2.97
2018-09-03T01:13:02.187Z,4.20
2018-09-03T01:15:08.810Z,4.40
2018-09-03T01:17:17.060Z,4.10
2018-09-03T01:19:22.571Z,3.40
2018-09-03T01:21:30.463Z,5.07
2018-09-03T01:23:38.955Z,2.57
2018-09-03T01:25:44.514Z,3.43
2018-09-03T01:27:51.023Z,4.63
2018-09-03T01:29:57.555Z,2.63
2018-09-03T01:32:03.176Z,4.50
2018-09-03T01:34:11.047Z,3.13
2018-09-03T01:36:20.699Z,3.33
2018-09-03T01:38:28.574Z,3.43
2018-09-03T01:40:35.530Z,3.87
2018-09-03T01:42:43.718Z,3.43
2018-09-03T01:44:50.849Z,3.90
2018-09-03T01:46:58.011Z,4.50
2018-09-03T01:49:04.368Z,3.90
2018-09-03T01:51:09.994Z,4.07
2018-09-03T01:53:17.282Z,5.47
2018-09-03T01:55:26.161Z,3.17
2018-09-03T01:57:33.429Z,3.03
2018-09-03T01:59:39.835Z,4.10
2018-09-03T02:01:44.522Z,4.03
2018-09-03T02:03:49.044Z,4.80
2018-09-03T02:05:53.720Z,2.50
2018-09-03T02:07:58.205Z,3.63
2018-09-03T02:10:02.677Z,3.90
2018-09-03T02:12:11.651Z,2.67
2018-09-03T02:14:16.139Z,3.83
2018-09-03T02:16:20.576Z,2.83
2018-09-03T02:18:25.047Z,5.63
2018-09-03T02:20:29.527Z,3.57
2018-09-03T02:22:33.933Z,3.57
2018-09-03T02:24:38.625Z,2.30
2018-09-03T02:26:43.141Z,3.23
2018-09-03T02:28:47.594Z,2.37
2018-09-03T02:30:52.018Z,3.17
2018-09-03T02:32:56.619Z,2.77
2018-09-03T02:35:01.228Z,3.07
2018-09-03T02:37:05.912Z,2.60
2018-09-03T02:39:10.458Z,4.10
2018-09-03T02:41:14.943Z,3.57
2018-09-03T02:43:19.726Z,4.87
2018-09-03T02:45:24.182Z,3.03
2018-09-03T02:47:28.647Z,4.10
2018-09-03T02:49:33.082Z,3.17
2018-09-03T02:51:37.677Z,4.47
2018-09-03T02:53:42.178Z,2.87
2018-09-03T02:55:46.617Z,2.57
2018-09-03T02:57:51.076Z,3.60
2018-09-03T02:59:55.598Z,3.40
2018-09-03T03:02:00.085Z,2.63
2018-09-03T03:04:04.560Z,3.30
2018-09-03T03:06:09.039Z,3.80
2018-09-03T03:08:13.475Z,2.53
2018-09-03T03:10:17.938Z,3.23
2018-09-03T03:12:24.529Z,3.40
2018-09-03T03:14:29.028Z,3.97
2018-09-03T03:16:33.695Z,3.87
2018-09-03T03:18:38.190Z,2.60
2018-09-03T03:20:42.682Z,2.27
2018-09-03T03:22:47.129Z,3.80
2018-09-03T03:24:51.558Z,2.47
2018-09-03T03:26:56.012Z,3.00
2018-09-03T03:29:00.466Z,2.47
2018-09-03T03:31:04.918Z,4.03
2018-09-03T03:33:09.378Z,3.37
2018-09-03T03:35:13.879Z,2.93
2018-09-03T03:37:18.320Z,2.40
2018-09-03T03:39:22.784Z,2.77
2018-09-03T03:41:27.360Z,2.70
2018-09-03T03:43:31.894Z,3.17
2018-09-03T03:45:36.357Z,4.43
2018-09-03T03:47:41.207Z,4.50
2018-09-03T03:49:46.030Z,2.47
2018-09-03T03:51:50.514Z,2.33
2018-09-03T03:53:54.966Z,2.30
2018-09-03T03:55:59.430Z,2.97
2018-09-03T03:58:04.160Z,3.43
2018-09-03T04:00:09.162Z,2.63
2018-09-03T04:02:13.627Z,2.63
2018-09-03T04:04:20.606Z,3.97
2018-09-03T04:06:28.185Z,2.80
2018-09-03T04:08:37.628Z,2.73
2018-09-03T04:10:44.091Z,2.83
2018-09-03T04:12:54.076Z,2.80
2018-09-03T04:15:01.545Z,3.33
2018-09-03T04:17:08.863Z,2.70
2018-09-03T04:19:15.371Z,3.97
2018-09-03T04:21:22.000Z,4.43
2018-09-03T04:23:28.695Z,3.60
2018-09-03T04:25:36.788Z,4.40
2018-09-03T04:27:45.219Z,4.73
2018-09-03T04:29:51.541Z,3.40
2018-09-03T04:31:59.024Z,3.00
2018-09-03T04:34:05.203Z,3.27
2018-09-03T04:36:13.470Z,3.70
2018-09-03T04:38:17.971Z,4.33
2018-09-03T04:40:22.466Z,5.37
2018-09-03T04:42:26.922Z,4.07
2018-09-03T04:44:31.377Z,5.67
2018-09-03T04:46:36.075Z,5.73
2018-09-03T04:48:40.560Z,2.87
2018-09-03T04:50:45.038Z,5.90
2018-09-03T04:52:49.515Z,4.17
2018-09-03T04:54:54.450Z,3.10
2018-09-03T04:56:58.910Z,3.10
2018-09-03T04:59:03.399Z,3.27
2018-09-03T05:01:08.070Z,3.67
2018-09-03T05:03:12.518Z,4.20
2018-09-03T05:05:16.996Z,3.93
2018-09-03T05:07:21.473Z,2.53
2018-09-03T05:09:25.933Z,2.77
2018-09-03T05:11:30.405Z,6.73
2018-09-03T05:13:34.858Z,3.57
2018-09-03T05:15:39.307Z,6.27
2018-09-03T05:17:43.839Z,3.17
2018-09-03T05:19:48.286Z,4.57
2018-09-03T05:21:53.068Z,3.70
2018-09-03T05:23:57.692Z,3.73
2018-09-03T05:26:02.210Z,4.47
2018-09-03T05:28:06.641Z,5.27
2018-09-03T05:30:11.083Z,4.93
2018-09-03T05:32:15.675Z,3.60
2018-09-03T05:34:20.130Z,5.43
2018-09-03T05:36:24.631Z,3.63
2018-09-03T05:38:29.109Z,3.57
2018-09-03T05:40:33.563Z,3.03
2018-09-03T05:42:38.065Z,4.23
2018-09-03T05:44:42.532Z,3.37
2018-09-03T05:46:47.008Z,2.70
2018-09-03T05:48:51.470Z,3.50
2018-09-03T05:50:56.107Z,3.30
2018-09-03T05:53:00.547Z,2.90
2018-09-03T05:55:05.123Z,5.73
2018-09-03T05:57:09.926Z,5.17
2018-09-03T05:59:14.458Z,4.63
2018-09-03T06:01:18.871Z,2.90
2018-09-03T06:03:23.328Z,3.97
2018-09-03T06:05:27.771Z,3.43
2018-09-03T06:07:32.230Z,4.37
2018-09-03T06:09:36.777Z,3.90
2018-09-03T06:11:41.599Z,2.97
2018-09-03T06:13:46.083Z,5.37
2018-09-03T06:15:50.979Z,3.10
2018-09-03T06:17:55.435Z,3.70
2018-09-03T06:19:59.890Z,4.57
2018-09-03T06:22:05.325Z,3.03
2018-09-03T06:24:09.846Z,3.20
2018-09-03T06:26:14.302Z,4.87
2018-09-03T06:28:18.746Z,5.10
2018-09-03T06:30:23.470Z,3.17
2018-09-03T06:32:28.780Z,3.70
2018-09-03T06:34:33.288Z,4.23
2018-09-03T06:36:37.797Z,3.43
2018-09-03T06:38:42.352Z,5.17
2018-09-03T06:40:46.829Z,4.77
2018-09-03T06:42:51.309Z,6.67
2018-09-03T06:44:55.822Z,5.20
2018-09-03T06:47:00.318Z,3.97
2018-09-03T06:49:04.788Z,4.73
2018-09-03T06:51:09.295Z,3.73
2018-09-03T06:53:13.831Z,4.23
2018-09-03T06:55:18.286Z,5.80
2018-09-03T06:57:22.859Z,5.00
2018-09-03T06:59:27.391Z,4.60
2018-09-03T07:01:31.838Z,3.20
2018-09-03T07:03:36.344Z,4.00
2018-09-03T07:05:40.800Z,4.20
2018-09-03T07:07:48.904Z,5.33
2018-09-03T07:09:53.485Z,4.03
2018-09-03T07:11:57.986Z,5.77
2018-09-03T07:14:02.525Z,5.67
2018-09-03T07:16:07.129Z,4.07
2018-09-03T07:18:11.643Z,4.33
2018-09-03T07:20:16.142Z,6.73
2018-09-03T07:22:20.597Z,4.90
2018-09-03T07:24:25.047Z,4.30
2018-09-03T07:26:29.770Z,5.03
2018-09-03T07:28:34.211Z,6.70
2018-09-03T07:30:38.720Z,4.43
2018-09-03T07:32:43.244Z,3.63
2018-09-03T07:34:47.775Z,4.70
2018-09-03T07:36:52.230Z,5.37
2018-09-03T07:38:56.707Z,3.53
2018-09-03T07:41:01.234Z,4.20
2018-09-03T07:43:05.995Z,4.03
2018-09-03T07:45:10.694Z,4.70
2018-09-03T07:47:15.205Z,5.00
2018-09-03T07:49:19.672Z,4.87
2018-09-03T07:51:24.128Z,5.33
2018-09-03T07:53:28.696Z,6.57
2018-09-03T07:55:33.137Z,8.20
2018-09-03T07:57:37.589Z,7.63
2018-09-03T07:59:42.076Z,7.10
2018-09-03T08:01:46.576Z,6.27
2018-09-03T08:03:51.230Z,5.70
2018-09-03T08:05:55.683Z,5.40
2018-09-03T08:08:00.126Z,4.53
2018-09-03T08:10:05.178Z,4.03
2018-09-03T08:12:09.718Z,4.30
2018-09-03T08:14:18.622Z,4.60
2018-09-03T08:16:23.263Z,5.10
2018-09-03T08:18:27.750Z,5.40
2018-09-03T08:20:32.595Z,6.73
2018-09-03T08:22:37.082Z,4.43
2018-09-03T08:24:41.521Z,4.27
2018-09-03T08:26:49.467Z,4.70
2018-09-03T08:28:54.909Z,6.50
2018-09-03T08:30:59.536Z,7.00
2018-09-03T08:33:04.177Z,5.60
2018-09-03T08:35:08.687Z,5.33
2018-09-03T08:37:13.111Z,7.53
2018-09-03T08:39:17.623Z,6.90
2018-09-03T08:41:22.464Z,7.43
2018-09-03T08:43:27.840Z,5.57
2018-09-03T08:45:34.532Z,5.17
2018-09-03T08:47:39.003Z,4.90
2018-09-03T08:49:43.423Z,5.60
2018-09-03T08:51:47.973Z,6.43
2018-09-03T08:53:52.492Z,5.43
2018-09-03T08:55:57.664Z,5.30
2018-09-03T08:58:02.382Z,5.73
2018-09-03T09:00:07.926Z,5.77
2018-09-03T09:02:12.531Z,5.43
2018-09-03T09:04:17.064Z,6.10
2018-09-03T09:06:21.638Z,6.10
2018-09-03T09:08:26.776Z,7.93
2018-09-03T09:10:31.227Z,6.97
2018-09-03T09:12:35.795Z,7.73
2018-09-03T09:14:40.261Z,8.97
2018-09-03T09:16:44.787Z,6.77
2018-09-03T09:18:49.264Z,7.47
2018-09-03T09:20:53.695Z,6.53
2018-09-03T09:22:58.228Z,7.57
2018-09-03T09:25:02.729Z,7.67
2018-09-03T09:27:07.173Z,7.17
2018-09-03T09:29:11.719Z,7.43
2018-09-03T09:31:16.255Z,6.97
2018-09-03T09:33:20.844Z,7.00
2018-09-03T09:35:25.436Z,7.70
2018-09-03T09:37:29.976Z,8.63
2018-09-03T09:39:35.050Z,8.93
2018-09-03T09:41:39.574Z,8.17
2018-09-03T09:43:44.061Z,7.90
2018-09-03T09:45:48.591Z,8.20
2018-09-03T09:47:53.115Z,8.33
2018-09-03T09:49:57.726Z,8.57
2018-09-03T09:52:02.703Z,8.27
2018-09-03T09:54:07.177Z,7.70
2018-09-03T09:56:12.126Z,7.77
2018-09-03T09:58:16.682Z,7.90
2018-09-03T10:00:26.558Z,7.50
2018-09-03T10:02:31.020Z,11.90
2018-09-03T10:04:35.492Z,11.10
2018-09-03T10:06:40.694Z,8.83
2018-09-03T10:08:46.288Z,9.50
2018-09-03T10:10:50.823Z,10.77
2018-09-03T10:12:55.330Z,10.47
2018-09-03T10:15:00.853Z,9.07
2018-09-03T10:17:05.355Z,8.83
2018-09-03T10:19:09.905Z,10.70
2018-09-03T10:21:14.719Z,9.50
2018-09-03T10:23:19.996Z,9.53
2018-09-03T10:25:24.545Z,11.53
2018-09-03T10:27:29.059Z,11.63
2018-09-03T10:29:33.559Z,10.00
2018-09-03T10:31:38.132Z,9.00
2018-09-03T10:33:42.619Z,7.87
2018-09-03T10:35:47.138Z,11.40
2018-09-03T10:37:51.600Z,8.80
2018-09-03T10:39:56.440Z,12.00
2018-09-03T10:42:00.962Z,8.97
2018-09-03T10:44:08.146Z,8.07
2018-09-03T10:46:12.725Z,9.00
2018-09-03T10:48:17.920Z,8.57
2018-09-03T10:50:22.431Z,9.43
2018-09-03T10:52:26.908Z,9.27
2018-09-03T10:54:31.356Z,8.20
2018-09-03T10:56:35.846Z,12.07
2018-09-03T10:58:40.295Z,8.40
2018-09-03T11:00:44.735Z,9.87
2018-09-03T11:02:49.625Z,7.90
2018-09-03T11:04:54.040Z,9.03
2018-09-03T11:06:58.474Z,13.47
2018-09-03T11:09:03.011Z,9.57
2018-09-03T11:11:07.552Z,10.93
2018-09-03T11:13:12.039Z,10.57
2018-09-03T11:15:16.548Z,8.27
2018-09-03T11:17:21.604Z,12.30
2018-09-03T11:19:28.590Z,8.53
2018-09-03T11:21:33.247Z,8.67
2018-09-03T11:23:37.577Z,9.33
2018-09-03T11:25:42.066Z,9.27
2018-09-03T11:27:46.970Z,12.33
2018-09-03T11:29:51.568Z,12.27
2018-09-03T11:31:56.139Z,10.07
2018-09-03T11:34:00.710Z,10.70
2018-09-03T11:36:05.254Z,9.63
2018-09-03T11:38:09.714Z,9.83
2018-09-03T11:40:14.192Z,10.87
2018-09-03T11:42:19.190Z,9.43
2018-09-03T11:44:25.508Z,11.27
2018-09-03T11:46:30.301Z,10.70
2018-09-03T11:48:34.735Z,13.37
2018-09-03T11:50:41.634Z,10.33
2018-09-03T11:52:46.408Z,12.20
2018-09-03T11:54:51.502Z,13.07
2018-09-03T11:56:55.978Z,11.20
2018-09-03T11:59:00.407Z,12.03
2018-09-03T12:01:05.050Z,13.53
2018-09-03T12:03:10.315Z,12.77
2018-09-03T12:05:14.770Z,12.37
2018-09-03T12:07:19.296Z,11.70
2018-09-03T12:09:23.722Z,12.70
2018-09-03T12:11:28.563Z,12.40
2018-09-03T12:13:33.154Z,11.23
2018-09-03T12:15:43.990Z,10.97
2018-09-03T12:17:48.459Z,11.80
2018-09-03T12:19:53.195Z,10.57
2018-09-03T12:21:58.407Z,11.97
2018-09-03T12:24:03.251Z,14.43
2018-09-03T12:26:08.414Z,11.50
2018-09-03T12:28:12.895Z,9.47
2018-09-03T12:30:17.401Z,11.30
2018-09-03T12:32:21.857Z,10.17
2018-09-03T12:34:26.324Z,9.27
2018-09-03T12:36:30.793Z,10.87
2018-09-03T12:38:35.670Z,11.43
2018-09-03T12:40:40.187Z,12.63
2018-09-03T12:42:47.834Z,12.83
2018-09-03T12:44:52.338Z,13.03
2018-09-03T12:46:57.007Z,14.47
2018-09-03T12:49:02.047Z,12.10
2018-09-03T12:51:06.798Z,10.97
2018-09-03T12:53:13.436Z,13.07
2018-09-03T12:55:17.969Z,12.40
2018-09-03T12:57:23.045Z,13.10
2018-09-03T12:59:27.527Z,10.97
2018-09-03T13:01:32.211Z,13.53
2018-09-03T13:03:36.634Z,13.90
2018-09-03T13:05:41.130Z,11.80
2018-09-03T13:07:45.566Z,11.90
2018-09-03T13:09:51.024Z,13.10
2018-09-03T13:11:55.572Z,17.93
2018-09-03T13:14:00.520Z,16.00
2018-09-03T13:16:05.144Z,13.43
2018-09-03T13:18:10.020Z,15.67
2018-09-03T13:20:14.940Z,15.83
2018-09-03T13:22:20.211Z,15.37
2018-09-03T13:24:24.657Z,14.70
2018-09-03T13:26:29.143Z,12.70
2018-09-03T13:28:33.742Z,13.37
2018-09-03T13:30:38.927Z,16.90
2018-09-03T13:32:43.400Z,13.03
2018-09-03T13:34:47.839Z,12.97
2018-09-03T13:36:52.392Z,11.60
2018-09-03T13:38:58.154Z,12.10
2018-09-03T13:41:09.571Z,12.30
2018-09-03T13:43:14.113Z,11.07
2018-09-03T13:45:20.590Z,11.47
2018-09-03T13:47:25.960Z,12.73
2018-09-03T13:49:30.423Z,10.50
2018-09-03T13:51:34.924Z,10.93
2018-09-03T13:53:39.376Z,11.70
2018-09-03T13:55:43.835Z,13.17
2018-09-03T13:57:48.326Z,13.40
2018-09-03T13:59:52.874Z,13.47
2018-09-03T14:01:57.419Z,15.33
2018-09-03T14:04:02.055Z,13.77
2018-09-03T14:06:09.099Z,12.47
2018-09-03T14:08:14.226Z,12.87
2018-09-03T14:10:19.307Z,11.80
2018-09-03T14:12:24.789Z,11.70
2018-09-03T14:14:29.375Z,11.05
2018-09-03T14:16:34.327Z,11.97
2018-09-03T14:18:39.179Z,12.10
2018-09-03T14:20:44.310Z,12.13
2018-09-03T14:22:49.596Z,12.37
2018-09-03T14:24:54.259Z,11.07
2018-09-03T14:26:59.163Z,15.93
2018-09-03T14:29:03.921Z,16.63
2018-09-03T14:31:08.411Z,15.33
2018-09-03T14:33:12.982Z,11.87
2018-09-03T14:35:24.023Z,15.17
2018-09-03T14:37:31.170Z,15.80
2018-09-03T14:39:35.654Z,14.30
2018-09-03T14:41:40.103Z,13.87
2018-09-03T14:43:44.767Z,15.67
2018-09-03T14:45:49.413Z,16.13
2018-09-03T14:47:53.854Z,14.40
2018-09-03T14:49:58.337Z,14.37
2018-09-03T14:52:02.776Z,15.15
2018-09-03T14:54:07.286Z,17.90
2018-09-03T14:56:11.822Z,14.28
2018-09-03T14:58:16.671Z,14.27
2018-09-03T15:00:21.114Z,15.70
2018-09-03T15:02:25.665Z,14.85
2018-09-03T15:04:30.143Z,19.43
2018-09-03T15:06:34.630Z,16.70
2018-09-03T15:08:39.111Z,15.00
2018-09-03T15:10:43.706Z,15.30
2018-09-03T15:12:48.325Z,15.28
2018-09-03T15:14:52.833Z,16.30
2018-09-03T15:16:57.358Z,15.23
2018-09-03T15:19:03.473Z,13.90
2018-09-03T15:21:07.962Z,14.67
2018-09-03T15:23:12.414Z,15.27
2018-09-03T15:25:16.891Z,16.17
2018-09-03T15:27:21.379Z,17.20
2018-09-03T15:29:26.479Z,17.17
2018-09-03T15:31:31.329Z,16.50
2018-09-03T15:33:36.665Z,16.23
2018-09-03T15:35:41.781Z,16.33
2018-09-03T15:37:46.739Z,16.55
2018-09-03T15:39:51.229Z,14.63
2018-09-03T15:41:55.962Z,16.60
2018-09-03T15:44:00.382Z,13.23
2018-09-03T15:46:06.427Z,15.07
2018-09-03T15:48:11.348Z,14.93
2018-09-03T15:50:16.011Z,16.00
2018-09-03T15:52:20.591Z,16.30
2018-09-03T15:54:25.878Z,15.80
2018-09-03T15:56:30.409Z,14.37
2018-09-03T15:58:35.187Z,14.83
2018-09-03T16:00:39.862Z,14.50
2018-09-03T16:02:44.862Z,15.05
2018-09-03T16:04:50.158Z,13.30
2018-09-03T16:06:55.404Z,12.70
2018-09-03T16:09:01.043Z,13.53
2018-09-03T16:11:07.041Z,12.50
2018-09-03T16:13:12.063Z,13.10
2018-09-03T16:15:16.694Z,12.40
2018-09-03T16:17:22.760Z,12.53
2018-09-03T16:19:27.569Z,12.10
2018-09-03T16:21:32.384Z,11.90
2018-09-03T16:23:36.945Z,13.53
2018-09-03T16:25:41.420Z,11.73
2018-09-03T16:27:46.206Z,12.83
2018-09-03T16:29:50.635Z,14.43
2018-09-03T16:31:55.172Z,13.00
2018-09-03T16:33:59.612Z,16.33
2018-09-03T16:36:04.278Z,11.67
2018-09-03T16:38:08.775Z,11.10
2018-09-03T16:40:13.445Z,13.23
2018-09-03T16:42:17.919Z,12.03
2018-09-03T16:44:24.518Z,14.00
2018-09-03T16:46:29.261Z,11.40
2018-09-03T16:48:34.443Z,13.27
2018-09-03T16:50:39.286Z,10.87
2018-09-03T16:52:43.880Z,10.57
2018-09-03T16:54:49.076Z,12.73
2018-09-03T16:56:55.738Z,9.67
2018-09-03T16:59:00.837Z,12.57
2018-09-03T17:01:05.401Z,10.73
2018-09-03T17:03:10.282Z,10.17
2018-09-03T17:05:15.098Z,11.97
2018-09-03T17:07:19.818Z,11.70
2018-09-03T17:09:26.304Z,9.70
2018-09-03T17:11:31.307Z,12.00
2018-09-03T17:13:35.820Z,11.47
2018-09-03T17:15:40.656Z,12.67
2018-09-03T17:17:46.049Z,10.57
2018-09-03T17:19:50.537Z,13.47
2018-09-03T17:21:55.569Z,12.60
2018-09-03T17:24:00.208Z,11.67
2018-09-03T17:26:05.338Z,11.33
2018-09-03T17:28:09.896Z,11.10
2018-09-03T17:30:14.466Z,10.80
2018-09-03T17:32:19.380Z,12.13
2018-09-03T17:34:23.831Z,13.10
2018-09-03T17:36:28.771Z,10.63
2018-09-03T17:38:36.072Z,11.60
2018-09-03T17:40:40.950Z,10.43
2018-09-03T17:42:45.713Z,10.03
2018-09-03T17:44:50.374Z,13.20
2018-09-03T17:46:54.948Z,10.27
2018-09-03T17:49:05.842Z,10.93
2018-09-03T17:51:10.786Z,11.73
2018-09-03T17:53:15.605Z,9.80
2018-09-03T17:55:20.089Z,11.73
2018-09-03T17:57:27.141Z,10.70
2018-09-03T17:59:31.723Z,10.97
2018-09-03T18:01:37.298Z,10.97
2018-09-03T18:03:42.363Z,9.67
2018-09-03T18:05:49.719Z,10.67
2018-09-03T18:07:54.291Z,12.07
2018-09-03T18:09:59.233Z,11.80
2018-09-03T18:12:04.267Z,10.30
2018-09-03T18:14:09.450Z,10.20
2018-09-03T18:16:15.097Z,9.93
2018-09-03T18:18:20.327Z,11.10
2018-09-03T18:20:25.215Z,11.70
2018-09-03T18:22:29.843Z,13.53
2018-09-03T18:24:34.458Z,11.63
2018-09-03T18:26:39.026Z,10.93
2018-09-03T18:28:43.551Z,12.57
2018-09-03T18:30:48.838Z,10.83
2018-09-03T18:32:54.496Z,10.20
2018-09-03T18:35:00.611Z,11.13
2018-09-03T18:37:05.251Z,10.13
2018-09-03T18:39:12.862Z,12.47
2018-09-03T18:41:17.765Z,10.40
2018-09-03T18:43:22.247Z,19.17
2018-09-03T18:45:27.010Z,16.60
2018-09-03T18:47:31.729Z,14.77
2018-09-03T18:49:36.223Z,10.97
2018-09-03T18:51:41.468Z,9.70
2018-09-03T18:53:46.443Z,11.43
2018-09-03T18:55:51.814Z,9.13
2018-09-03T18:57:56.525Z,9.50
2018-09-03T19:00:02.207Z,10.07
2018-09-03T19:02:06.710Z,10.30
2018-09-03T19:04:11.414Z,10.53
2018-09-03T19:06:16.752Z,13.30
2018-09-03T19:08:21.231Z,12.03
2018-09-03T19:10:25.957Z,9.53
2018-09-03T19:12:30.750Z,11.17
2018-09-03T19:14:35.654Z,10.07
2018-09-03T19:16:40.291Z,10.97
2018-09-03T19:18:44.828Z,9.93
2018-09-03T19:20:50.802Z,10.53
2018-09-03T19:22:56.388Z,11.33
2018-09-03T19:25:02.136Z,11.00
2018-09-03T19:27:08.197Z,9.83
2018-09-03T19:29:13.280Z,10.80
2018-09-03T19:31:18.262Z,9.90
2018-09-03T19:33:25.785Z,10.03
2018-09-03T19:35:32.305Z,10.10
2018-09-03T19:37:38.103Z,11.43
2018-09-03T19:39:44.296Z,10.63
2018-09-03T19:41:49.736Z,9.80
2018-09-03T19:43:54.503Z,9.83
2018-09-03T19:45:59.452Z,11.37
2018-09-03T19:48:04.325Z,14.47
2018-09-03T19:50:09.835Z,9.57
2018-09-03T19:52:14.911Z,13.97
2018-09-03T19:54:20.018Z,11.10
2018-09-03T19:56:24.822Z,10.37
2018-09-03T19:58:29.883Z,10.07
2018-09-03T20:00:34.676Z,9.43
2018-09-03T20:02:39.870Z,11.70
2018-09-03T20:04:44.398Z,9.43
2018-09-03T20:06:48.910Z,9.33
2018-09-03T20:08:57.002Z,10.13
2018-09-03T20:11:02.820Z,11.70
2018-09-03T20:13:07.469Z,10.40
2018-09-03T20:15:14.297Z,10.73
2018-09-03T20:17:19.348Z,9.23
2018-09-03T20:19:23.762Z,8.77
2018-09-03T20:21:28.226Z,8.77
2018-09-03T20:23:32.874Z,10.13
2018-09-03T20:25:37.190Z,10.63
2018-09-03T20:27:41.702Z,10.80
2018-09-03T20:29:46.169Z,9.80
2018-09-03T20:31:50.649Z,9.13
2018-09-03T20:33:55.122Z,9.63
2018-09-03T20:35:59.586Z,8.77
2018-09-03T20:38:05.430Z,9.90
2018-09-03T20:40:09.904Z,9.07
2018-09-03T20:42:14.381Z,11.37
2018-09-03T20:44:18.902Z,11.73
2018-09-03T20:46:23.448Z,9.53
2018-09-03T20:48:27.971Z,11.03
2018-09-03T20:50:32.419Z,9.67
2018-09-03T20:52:36.878Z,10.77
2018-09-03T20:54:44.060Z,10.27
2018-09-03T20:56:48.508Z,9.57
2018-09-03T20:58:52.973Z,10.40
2018-09-03T21:00:59.884Z,10.17
2018-09-03T21:03:05.682Z,10.03
2018-09-03T21:05:10.139Z,8.97
2018-09-03T21:07:16.854Z,8.97
2018-09-03T21:09:21.423Z,11.83
2018-09-03T21:11:26.011Z,10.23
2018-09-03T21:13:30.543Z,10.03
2018-09-03T21:15:35.011Z,11.33
2018-09-03T21:17:41.482Z,10.13
2018-09-03T21:19:46.015Z,9.93
2018-09-03T21:21:50.569Z,8.53
2018-09-03T21:23:55.000Z,9.47
2018-09-03T21:25:59.531Z,8.77
2018-09-03T21:28:03.967Z,10.67
2018-09-03T21:30:09.051Z,9.50
2018-09-03T21:32:13.506Z,8.77
2018-09-03T21:34:17.987Z,10.63
2018-09-03T21:36:22.407Z,9.43
2018-09-03T21:38:27.034Z,8.93
2018-09-03T21:40:31.483Z,9.63
2018-09-03T21:42:35.877Z,8.37
2018-09-03T21:44:40.391Z,8.73
2018-09-03T21:46:44.846Z,9.33
2018-09-03T21:48:49.322Z,8.80
2018-09-03T21:50:53.767Z,10.97
2018-09-03T21:52:58.195Z,9.53
2018-09-03T21:55:03.790Z,10.03
2018-09-03T21:57:08.308Z,11.70
2018-09-03T21:59:12.762Z,9.30
2018-09-03T22:01:17.611Z,8.70
2018-09-03T22:03:22.050Z,8.70
2018-09-03T22:05:26.504Z,9.17
2018-09-03T22:07:30.980Z,8.80
2018-09-03T22:09:35.422Z,8.80
2018-09-03T22:11:39.822Z,9.83
2018-09-03T22:13:44.329Z,9.00
2018-09-03T22:15:49.438Z,10.00
2018-09-03T22:17:53.834Z,9.57
2018-09-03T22:19:58.316Z,8.90
2018-09-03T22:22:02.703Z,11.00
2018-09-03T22:24:07.171Z,8.87
2018-09-03T22:26:15.267Z,8.83
2018-09-03T22:28:19.684Z,8.70
2018-09-03T22:30:24.222Z,8.43
2018-09-03T22:32:28.619Z,9.17
2018-09-03T22:34:33.066Z,8.97
2018-09-03T22:36:37.543Z,9.53
2018-09-03T22:38:41.950Z,8.17
2018-09-03T22:40:46.407Z,8.53
2018-09-03T22:42:50.836Z,8.57
2018-09-03T22:44:57.331Z,9.60
2018-09-03T22:47:01.732Z,8.80
2018-09-03T22:49:07.064Z,9.80
2018-09-03T22:51:11.451Z,9.37
2018-09-03T22:53:15.898Z,8.43
2018-09-03T22:55:20.363Z,8.40
2018-09-03T22:57:24.800Z,10.90
2018-09-03T22:59:29.234Z,11.40
2018-09-03T23:01:33.663Z,8.83
2018-09-03T23:03:38.210Z,9.20
2018-09-03T23:05:42.679Z,10.10
2018-09-03T23:07:47.192Z,10.80
2018-09-03T23:09:51.620Z,9.47
2018-09-03T23:11:56.092Z,11.93
2018-09-03T23:14:01.118Z,10.43
2018-09-03T23:16:05.704Z,8.93
2018-09-03T23:18:10.166Z,10.63
2018-09-03T23:20:14.702Z,10.23
2018-09-03T23:22:19.101Z,10.80
2018-09-03T23:24:23.583Z,9.60
2018-09-03T23:26:28.042Z,10.40
2018-09-03T23:28:33.054Z,10.60
2018-09-03T23:30:37.532Z,11.50
2018-09-03T23:32:41.939Z,9.53
2018-09-03T23:34:46.375Z,10.73
2018-09-03T23:36:50.813Z,10.60
2018-09-03T23:38:56.325Z,11.97
2018-09-03T23:41:00.787Z,8.83
2018-09-03T23:43:05.255Z,9.37
2018-09-03T23:45:09.783Z,11.47
2018-09-03T23:47:14.204Z,9.80
2018-09-03T23:49:21.686Z,9.37
2018-09-03T23:51:26.171Z,11.30
2018-09-03T23:53:30.662Z,10.40
2018-09-03T23:55:35.203Z,10.30
2018-09-03T23:57:39.679Z,11.17
2018-09-03T23:59:44.136Z,9.67
